Time;durP1;ratioP1;P1;durP2;ratioP2;P2;SDS_P1;SDS_P2;PMS_P1;PMS_P2;Temp;Humidity;BMP_temperature;BMP_pressure;BME280_temperature;BME280_humidity;BME280_pressure;Samples;Min_cycle;Max_cycle;Signal;HPM_P1;HPM_P2
2024/02/02 00:01:30;;;;;;;2.05;0.90;;;19.10;52.60;;;;;;5041639;28;20029;-53
2024/02/02 00:03:56;;;;;;;2.42;0.85;;;19.10;52.60;;;;;;5036362;28;20120;-53
2024/02/02 00:06:21;;;;;;;1.65;0.82;;;19.10;52.60;;;;;;5036465;28;20123;-55
2024/02/02 00:08:47;;;;;;;2.75;1.30;;;19.10;52.60;;;;;;5037884;28;20021;-53
2024/02/02 00:11:12;;;;;;;2.80;0.77;;;19.10;52.60;;;;;;5034083;28;20036;-52
2024/02/02 00:13:38;;;;;;;1.60;0.90;;;19.10;52.60;;;;;;5033060;28;20032;-52
2024/02/02 00:16:04;;;;;;;4.82;1.48;;;19.10;52.60;;;;;;5040816;28;20075;-54
2024/02/02 00:18:29;;;;;;;1.65;0.90;;;19.10;52.60;;;;;;5034484;28;20025;-55
2024/02/02 00:20:56;;;;;;;1.77;0.80;;;19.10;52.60;;;;;;5029663;28;20129;-52
2024/02/02 00:23:21;;;;;;;2.55;1.05;;;19.10;52.60;;;;;;5040570;28;20025;-52
2024/02/02 00:25:46;;;;;;;3.47;1.10;;;19.10;52.60;;;;;;5037507;28;20403;-55
2024/02/02 00:28:12;;;;;;;1.77;1.08;;;19.10;52.60;;;;;;5034672;28;20038;-53
2024/02/02 00:30:40;;;;;;;2.33;1.08;;;19.10;52.60;;;;;;5040943;28;20025;-53
2024/02/02 00:33:06;;;;;;;1.77;0.73;;;19.10;52.60;;;;;;5037529;28;20108;-52
2024/02/02 00:35:32;;;;;;;2.28;0.98;;;19.10;52.60;;;;;;5038824;28;20029;-53
2024/02/02 00:37:58;;;;;;;2.80;1.08;;;19.10;52.60;;;;;;5038473;28;20029;-56
2024/02/02 00:40:29;;;;;;;1.98;0.85;;;19.10;52.60;;;;;;5039627;28;20033;-54
2024/02/02 00:42:54;;;;;;;2.75;0.95;;;19.10;52.60;;;;;;5034741;28;20476;-55
2024/02/02 00:45:20;;;;;;;1.75;0.65;;;19.10;52.60;;;;;;5043349;28;20055;-51
2024/02/02 00:47:46;;;;;;;1.48;0.80;;;19.10;52.60;;;;;;5034392;28;20344;-52
2024/02/02 00:50:12;;;;;;;3.03;1.05;;;19.10;52.60;;;;;;5036706;28;20145;-54
2024/02/02 00:52:37;;;;;;;2.78;1.13;;;19.10;52.60;;;;;;5042000;28;20090;-51
2024/02/02 00:55:03;;;;;;;1.92;0.90;;;19.10;52.60;;;;;;5033796;28;20045;-53
2024/02/02 00:57:29;;;;;;;2.60;1.20;;;19.10;52.60;;;;;;5041094;28;20029;-54
2024/02/02 00:59:55;;;;;;;2.72;0.80;;;19.10;52.60;;;;;;5040629;28;20033;-54
2024/02/02 01:02:20;;;;;;;2.92;1.17;;;19.10;52.60;;;;;;5035744;28;20454;-52
2024/02/02 01:04:46;;;;;;;1.20;0.68;;;19.10;52.60;;;;;;5044659;28;20028;-52
2024/02/02 01:07:15;;;;;;;1.83;1.17;;;19.00;52.50;;;;;;5039064;28;20064;-55
2024/02/02 01:09:42;;;;;;;2.28;0.90;;;19.00;52.60;;;;;;5018863;28;20025;-55
2024/02/02 01:12:08;;;;;;;1.67;0.85;;;19.00;52.80;;;;;;5038868;28;20036;-53
2024/02/02 01:14:34;;;;;;;3.35;1.45;;;18.90;52.80;;;;;;5039991;28;20476;-53
2024/02/02 01:17:00;;;;;;;2.50;0.90;;;18.90;52.80;;;;;;5033361;28;20044;-53
2024/02/02 01:19:25;;;;;;;2.53;1.00;;;18.80;52.90;;;;;;5042285;28;20025;-54
2024/02/02 01:21:51;;;;;;;4.22;1.38;;;18.80;53.00;;;;;;5039290;28;20586;-54
2024/02/02 01:24:17;;;;;;;3.25;1.00;;;18.80;53.00;;;;;;5032988;28;20057;-55
2024/02/02 01:26:42;;;;;;;2.15;1.20;;;18.80;53.10;;;;;;5041289;28;20503;-52
2024/02/02 01:29:08;;;;;;;3.22;1.27;;;18.70;53.10;;;;;;5038271;28;20036;-52
2024/02/02 01:31:34;;;;;;;3.42;1.30;;;18.70;53.20;;;;;;5021172;28;20029;-55
2024/02/02 01:33:59;;;;;;;1.65;1.00;;;18.70;53.30;;;;;;5039912;28;20025;-56
2024/02/02 01:36:25;;;;;;;2.17;1.23;;;18.70;53.40;;;;;;5037461;28;20029;-53
2024/02/02 01:38:50;;;;;;;1.10;0.60;;;18.60;53.30;;;;;;5016432;28;20021;-52
2024/02/02 01:41:19;;;;;;;2.08;0.90;;;18.70;54.10;;;;;;5040812;28;20060;-53
2024/02/02 01:43:45;;;;;;;1.95;1.02;;;18.60;53.40;;;;;;5036246;28;20366;-52
2024/02/02 01:46:13;;;;;;;2.65;1.13;;;18.60;53.30;;;;;;5036300;28;20491;-56
2024/02/02 01:48:39;;;;;;;2.00;1.00;;;18.70;53.30;;;;;;5018007;28;20028;-54
2024/02/02 01:51:05;;;;;;;3.05;1.05;;;18.70;53.30;;;;;;5036269;28;20025;-53
2024/02/02 01:53:31;;;;;;;2.58;1.00;;;18.70;53.20;;;;;;5034285;28;20023;-53
2024/02/02 01:55:57;;;;;;;1.92;0.80;;;18.70;53.00;;;;;;5040186;28;20529;-53
2024/02/02 01:58:23;;;;;;;2.00;1.23;;;18.80;53.00;;;;;;5031645;28;20091;-52
2024/02/02 02:00:49;;;;;;;1.80;0.93;;;18.80;52.90;;;;;;5031141;28;20446;-54
2024/02/02 02:03:14;;;;;;;1.58;0.95;;;18.80;52.80;;;;;;5036433;28;20484;-54
2024/02/02 02:05:40;;;;;;;3.53;1.10;;;18.90;52.80;;;;;;5034858;28;20036;-52
2024/02/02 02:08:06;;;;;;;1.17;0.65;;;18.90;52.60;;;;;;5033362;28;20374;-53
2024/02/02 02:10:32;;;;;;;1.45;0.80;;;19.00;52.50;;;;;;5039172;28;20388;-53
2024/02/02 02:12:58;;;;;;;2.20;1.20;;;19.00;52.50;;;;;;5035571;28;20045;-53
2024/02/02 02:18:45;;;;;;;1.92;0.90;;;19.10;52.30;;;;;;5032609;28;20514;-52
2024/02/02 02:21:25;;;;;;;1.33;0.75;;;19.20;52.20;;;;;;5034000;28;20064;-52
2024/02/02 02:23:50;;;;;;;1.70;0.73;;;19.20;52.20;;;;;;5039962;28;20044;-53
2024/02/02 02:26:17;;;;;;;2.50;1.08;;;19.20;52.10;;;;;;5034226;28;20056;-54
2024/02/02 02:28:43;;;;;;;3.40;1.30;;;19.30;52.00;;;;;;5033208;28;20033;-51
2024/02/02 02:31:14;;;;;;;1.75;0.65;;;19.30;52.00;;;;;;5041270;28;20036;-53
2024/02/02 02:33:41;;;;;;;1.35;0.88;;;19.40;51.90;;;;;;5034262;28;20147;-54
2024/02/02 02:36:07;;;;;;;2.03;1.08;;;19.40;51.90;;;;;;5033094;28;20026;-54
2024/02/02 02:38:33;;;;;;;1.75;0.82;;;19.40;51.80;;;;;;5039504;28;20033;-54
2024/02/02 02:40:58;;;;;;;2.63;1.02;;;19.40;51.80;;;;;;5032200;28;20026;-53
2024/02/02 02:43:24;;;;;;;2.20;0.98;;;19.40;51.80;;;;;;5036585;28;20098;-55
2024/02/02 02:45:49;;;;;;;1.98;1.10;;;19.40;51.80;;;;;;5040291;28;20037;-55
2024/02/02 02:48:14;;;;;;;1.92;0.88;;;19.50;51.80;;;;;;5034482;28;20484;-52
2024/02/02 02:50:40;;;;;;;1.98;0.93;;;19.40;51.70;;;;;;5035710;28;20036;-54
2024/02/02 02:53:05;;;;;;;2.03;0.80;;;19.50;51.70;;;;;;5041127;28;20477;-52
2024/02/02 02:55:31;;;;;;;1.42;0.60;;;19.50;51.70;;;;;;5033716;28;20029;-54
2024/02/02 02:57:56;;;;;;;1.85;0.88;;;19.50;51.70;;;;;;5034827;28;20068;-51
2024/02/02 03:00:27;;;;;;;3.00;1.20;;;19.50;51.70;;;;;;5035289;28;20040;-54
2024/02/02 03:02:53;;;;;;;3.05;1.23;;;19.50;51.70;;;;;;5037027;28;20051;-53
2024/02/02 03:05:19;;;;;;;2.97;0.82;;;19.50;51.70;;;;;;5010568;28;20098;-55
2024/02/02 03:07:44;;;;;;;3.08;1.10;;;19.50;51.80;;;;;;5031312;28;20041;-53
2024/02/02 03:10:10;;;;;;;2.28;1.00;;;19.50;51.80;;;;;;5030988;28;20431;-52
2024/02/02 03:12:35;;;;;;;1.83;0.73;;;19.40;51.80;;;;;;5034491;28;20029;-55
2024/02/02 03:15:01;;;;;;;2.13;0.93;;;19.40;51.90;;;;;;5035757;28;20052;-56
2024/02/02 03:17:26;;;;;;;2.25;1.10;;;19.30;51.90;;;;;;5028341;28;20464;-54
2024/02/02 03:19:52;;;;;;;2.35;0.70;;;19.40;52.00;;;;;;5039718;28;20037;-53
2024/02/02 03:22:17;;;;;;;1.20;0.68;;;19.30;52.00;;;;;;5035570;28;20060;-52
2024/02/02 03:24:43;;;;;;;1.88;0.90;;;19.30;52.10;;;;;;5032460;28;20029;-54
2024/02/02 03:27:08;;;;;;;2.33;1.02;;;19.30;52.10;;;;;;5016556;28;20051;-55
2024/02/02 03:29:34;;;;;;;1.50;0.80;;;19.30;52.20;;;;;;5037128;28;21084;-56
2024/02/02 03:31:59;;;;;;;1.35;0.65;;;19.20;52.20;;;;;;5033721;28;20041;-56
2024/02/02 03:34:25;;;;;;;1.17;0.50;;;19.20;52.20;;;;;;5040726;28;20033;-55
2024/02/02 03:36:50;;;;;;;1.77;0.85;;;19.20;52.30;;;;;;5035680;28;20048;-54
2024/02/02 03:39:17;;;;;;;2.70;1.42;;;19.20;52.30;;;;;;5032148;28;20606;-56
2024/02/02 03:41:43;;;;;;;1.63;1.10;;;19.10;52.30;;;;;;5037926;28;20039;-53
2024/02/02 03:44:08;;;;;;;0.88;0.60;;;19.10;52.40;;;;;;5033034;28;20435;-55
2024/02/02 03:46:34;;;;;;;1.73;0.80;;;19.10;52.40;;;;;;5033656;28;20029;-55
2024/02/02 03:48:59;;;;;;;3.05;1.00;;;19.10;52.50;;;;;;5039790;28;20041;-53
2024/02/02 03:51:25;;;;;;;1.88;0.80;;;19.00;52.50;;;;;;5034432;28;20025;-52
2024/02/02 03:53:50;;;;;;;1.92;0.95;;;19.00;52.50;;;;;;5033051;28;20041;-54
2024/02/02 03:56:16;;;;;;;1.83;1.10;;;19.00;52.50;;;;;;5039998;28;20033;-55
2024/02/02 03:58:41;;;;;;;1.80;1.23;;;19.00;52.60;;;;;;5036277;28;20060;-52
2024/02/02 04:01:07;;;;;;;2.40;0.88;;;19.00;52.60;;;;;;5034912;28;20040;-53
2024/02/02 04:03:32;;;;;;;2.88;1.23;;;18.90;52.60;;;;;;5034479;28;20032;-52
2024/02/02 04:05:59;;;;;;;1.80;0.60;;;18.90;52.60;;;;;;5032820;28;20034;-56
2024/02/02 04:08:25;;;;;;;2.53;0.98;;;18.90;52.70;;;;;;5034744;28;20565;-52
2024/02/02 04:10:50;;;;;;;2.03;1.00;;;18.90;52.70;;;;;;5041990;28;20033;-55
2024/02/02 04:13:16;;;;;;;2.70;1.10;;;18.90;52.70;;;;;;5036926;28;20446;-52
2024/02/02 04:15:41;;;;;;;2.10;0.85;;;18.90;52.70;;;;;;5040365;28;20044;-53
2024/02/02 04:18:07;;;;;;;2.08;0.90;;;18.90;52.80;;;;;;5040482;28;20330;-54
2024/02/02 04:20:32;;;;;;;2.25;1.05;;;18.80;52.70;;;;;;5038432;28;20049;-54
2024/02/02 04:22:58;;;;;;;1.73;0.95;;;18.80;52.70;;;;;;5038521;28;20029;-54
2024/02/02 04:25:23;;;;;;;1.92;1.17;;;18.80;52.70;;;;;;5040836;28;20040;-53
2024/02/02 04:27:49;;;;;;;1.40;0.70;;;18.80;52.70;;;;;;5036755;28;20094;-55
2024/02/02 04:30:14;;;;;;;2.42;1.10;;;18.80;52.70;;;;;;5041981;28;20039;-55
2024/02/02 04:32:41;;;;;;;1.50;0.80;;;18.80;52.70;;;;;;5027035;28;20298;-53
2024/02/02 04:35:06;;;;;;;1.85;0.80;;;18.90;52.80;;;;;;5038125;28;20038;-52
2024/02/02 04:37:32;;;;;;;1.58;1.00;;;18.80;52.70;;;;;;5043598;28;20127;-52
2024/02/02 04:39:57;;;;;;;3.15;1.05;;;18.80;52.70;;;;;;5038836;28;20112;-56
2024/02/02 04:42:23;;;;;;;2.83;1.38;;;18.80;52.80;;;;;;5026385;28;20026;-53
2024/02/02 04:44:48;;;;;;;2.08;0.77;;;18.80;52.80;;;;;;5040151;28;20087;-53
2024/02/02 04:47:14;;;;;;;2.55;1.00;;;18.80;52.80;;;;;;5039108;28;20055;-53
2024/02/02 04:49:39;;;;;;;1.58;0.90;;;18.80;52.80;;;;;;5041371;28;20060;-54
2024/02/02 04:52:05;;;;;;;3.05;1.20;;;18.80;52.80;;;;;;5041958;28;20078;-55
2024/02/02 04:54:31;;;;;;;1.58;0.85;;;18.80;52.80;;;;;;5041233;28;20036;-53
2024/02/02 04:56:56;;;;;;;1.30;0.77;;;18.80;52.80;;;;;;5036010;28;20034;-52
2024/02/02 04:59:23;;;;;;;1.45;0.80;;;18.80;53.30;;;;;;5042702;28;20036;-54
2024/02/02 05:01:48;;;;;;;1.85;0.82;;;18.80;52.80;;;;;;5040546;28;20121;-54
2024/02/02 05:04:14;;;;;;;3.15;1.02;;;18.80;52.70;;;;;;5040382;28;20131;-53
2024/02/02 05:06:39;;;;;;;1.95;0.90;;;18.80;52.80;;;;;;5025846;28;20030;-54
2024/02/02 05:09:05;;;;;;;3.15;0.90;;;18.80;52.70;;;;;;5034098;28;20148;-55
2024/02/02 05:11:31;;;;;;;1.90;0.80;;;18.80;52.80;;;;;;5038244;28;20029;-52
2024/02/02 05:13:56;;;;;;;1.80;0.90;;;18.80;52.70;;;;;;5039976;28;20033;-54
2024/02/02 05:16:22;;;;;;;3.17;1.25;;;18.80;52.70;;;;;;5038011;28;20056;-56
2024/02/02 05:18:47;;;;;;;2.53;1.00;;;18.80;52.70;;;;;;5035413;28;20547;-54
2024/02/02 05:21:13;;;;;;;1.58;0.85;;;18.80;52.70;;;;;;5040137;28;20021;-53
2024/02/02 05:23:38;;;;;;;2.42;0.98;;;18.80;52.70;;;;;;5035839;28;20396;-54
2024/02/02 05:26:04;;;;;;;1.70;0.82;;;18.80;52.70;;;;;;5037899;28;20043;-53
2024/02/02 05:28:30;;;;;;;2.15;0.93;;;18.80;52.60;;;;;;5043232;28;20021;-52
2024/02/02 05:30:55;;;;;;;1.73;0.88;;;18.80;52.70;;;;;;5035211;28;20064;-53
2024/02/02 05:33:21;;;;;;;2.72;0.90;;;18.90;52.70;;;;;;5034651;28;20048;-53
2024/02/02 05:35:46;;;;;;;3.90;0.93;;;18.80;52.60;;;;;;5042445;28;20056;-56
2024/02/02 05:38:12;;;;;;;2.08;0.80;;;18.80;52.60;;;;;;5034534;28;20128;-54
2024/02/02 05:40:37;;;;;;;3.58;1.08;;;18.80;52.60;;;;;;5028265;28;20032;-53
2024/02/02 05:43:03;;;;;;;3.65;0.85;;;18.90;52.60;;;;;;5041403;28;20025;-54
2024/02/02 05:45:28;;;;;;;1.30;0.60;;;18.80;52.50;;;;;;5038590;28;20517;-57
2024/02/02 05:47:54;;;;;;;1.02;0.93;;;18.80;52.50;;;;;;5037547;28;20041;-52
2024/02/02 05:50:19;;;;;;;2.90;1.30;;;18.80;52.50;;;;;;5043149;28;20395;-56
2024/02/02 05:52:45;;;;;;;2.95;1.45;;;18.80;52.40;;;;;;5036208;28;20029;-56
2024/02/02 05:55:11;;;;;;;1.67;0.88;;;18.80;52.50;;;;;;5037384;28;20120;-56
2024/02/02 05:57:36;;;;;;;1.77;0.80;;;18.80;52.40;;;;;;5042403;28;20039;-54
2024/02/02 06:00:03;;;;;;;2.05;0.75;;;18.90;52.50;;;;;;5035970;28;20041;-53
2024/02/02 06:02:29;;;;;;;2.83;1.27;;;18.90;52.50;;;;;;5038364;28;20652;-55
2024/02/02 06:04:54;;;;;;;1.35;0.70;;;18.90;52.50;;;;;;5039226;28;20114;-54
2024/02/02 06:07:19;;;;;;;2.05;0.80;;;18.90;52.50;;;;;;5036168;28;20140;-53
2024/02/02 06:09:45;;;;;;;2.88;1.15;;;18.90;52.50;;;;;;5041061;28;20029;-56
2024/02/02 06:12:10;;;;;;;1.42;0.73;;;18.80;52.40;;;;;;5037697;28;20049;-53
2024/02/02 06:14:36;;;;;;;1.30;0.77;;;18.90;52.50;;;;;;5022997;28;20025;-52
2024/02/02 06:17:02;;;;;;;2.42;1.00;;;18.90;52.50;;;;;;5039598;28;20033;-54
2024/02/02 06:19:28;;;;;;;1.58;0.80;;;18.90;52.50;;;;;;5038306;28;20037;-57
2024/02/02 06:21:53;;;;;;;2.15;0.90;;;18.90;52.50;;;;;;5034836;28;20381;-56
2024/02/02 06:24:19;;;;;;;2.28;0.82;;;18.90;52.50;;;;;;5026983;28;20139;-55
2024/02/02 06:26:44;;;;;;;1.10;0.73;;;18.90;52.50;;;;;;5037385;28;20037;-55
2024/02/02 06:29:11;;;;;;;1.48;0.60;;;18.90;52.50;;;;;;5037584;28;20057;-54
2024/02/02 06:31:36;;;;;;;0.90;0.70;;;18.90;52.50;;;;;;5044613;28;20031;-55
2024/02/02 06:34:03;;;;;;;2.10;1.05;;;18.90;52.50;;;;;;5038555;28;20040;-56
2024/02/02 06:36:28;;;;;;;1.70;1.10;;;18.90;52.50;;;;;;5036910;28;20082;-57
2024/02/02 06:38:55;;;;;;;2.72;1.00;;;18.90;52.50;;;;;;5044613;28;20033;-56
2024/02/02 06:41:21;;;;;;;1.80;0.90;;;18.90;52.50;;;;;;5036910;28;20029;-52
2024/02/02 06:43:47;;;;;;;1.73;0.70;;;18.90;52.40;;;;;;5040072;28;20051;-55
2024/02/02 06:46:12;;;;;;;1.50;0.80;;;18.90;52.40;;;;;;5040748;28;20033;-56
2024/02/02 06:48:38;;;;;;;1.10;0.80;;;18.90;52.40;;;;;;5038587;28;20316;-56
2024/02/02 06:51:03;;;;;;;2.08;0.82;;;18.90;52.50;;;;;;5036042;28;20036;-56
2024/02/02 06:53:29;;;;;;;1.30;0.70;;;18.90;52.50;;;;;;5042204;28;20439;-56
2024/02/02 06:55:54;;;;;;;1.60;0.82;;;18.90;52.40;;;;;;5037386;28;20025;-56
2024/02/02 06:58:42;;;;;;;2.40;0.90;;;18.90;52.40;;;;;;5037568;28;20025;-56
2024/02/02 07:01:10;;;;;;;2.72;1.17;;;18.90;52.40;;;;;;5037638;28;20026;-55
2024/02/02 07:03:37;;;;;;;1.27;0.82;;;18.90;52.40;;;;;;5037570;28;20399;-56
2024/02/02 07:06:05;;;;;;;2.08;1.00;;;18.90;52.40;;;;;;5035960;28;20132;-56
2024/02/02 07:08:31;;;;;;;3.92;1.00;;;18.90;52.40;;;;;;5035004;28;20039;-54
2024/02/02 07:11:11;;;;;;;1.85;1.10;;;18.90;52.40;;;;;;5032433;28;20037;-55
2024/02/02 07:13:48;;;;;;;2.05;1.08;;;18.90;52.40;;;;;;5038858;28;20037;-53
2024/02/02 07:16:28;;;;;;;1.45;0.90;;;18.90;52.40;;;;;;5035317;28;20034;-54
2024/02/02 07:18:54;;;;;;;3.03;1.40;;;18.90;52.30;;;;;;5036359;28;20446;-55
2024/02/02 07:21:20;;;;;;;1.90;1.02;;;18.90;52.30;;;;;;5040197;28;20025;-54
2024/02/02 07:23:45;;;;;;;2.25;1.33;;;18.90;52.20;;;;;;5035709;28;20056;-56
2024/02/02 07:26:24;;;;;;;3.80;1.58;;;18.90;52.80;;;;;;5037562;28;20048;-54
2024/02/02 07:28:49;;;;;;;2.60;1.40;;;18.90;52.20;;;;;;5037168;28;20072;-54
2024/02/02 07:31:38;;;;;;;3.42;1.70;;;18.90;52.20;;;;;;5030496;28;20511;-56
2024/02/02 07:34:28;;;;;;;4.32;1.60;;;18.90;52.20;;;;;;5029541;28;20492;-57
2024/02/02 07:36:53;;;;;;;3.88;1.98;;;18.90;52.20;;;;;;5028771;28;20435;-55
2024/02/02 07:39:30;;;;;;;4.50;2.55;;;18.90;52.20;;;;;;5033499;28;20053;-54
2024/02/02 07:41:58;;;;;;;5.65;2.47;;;18.90;52.40;;;;;;5032277;28;20034;-56
2024/02/02 07:44:25;;;;;;;6.00;3.45;;;18.90;52.50;;;;;;5032514;28;20044;-55
2024/02/02 07:46:50;;;;;;;5.85;2.90;;;18.90;52.50;;;;;;5032775;28;20059;-55
2024/02/02 07:49:16;;;;;;;8.82;3.65;;;18.80;52.60;;;;;;5032614;28;20037;-54
2024/02/02 07:51:43;;;;;;;8.40;3.25;;;18.80;52.60;;;;;;5030335;28;20040;-55
2024/02/02 07:54:09;;;;;;;8.52;3.78;;;18.70;52.60;;;;;;5028309;28;20086;-53
2024/02/02 07:56:35;;;;;;;8.50;3.35;;;18.70;52.70;;;;;;5029869;28;20032;-56
2024/02/02 07:59:00;;;;;;;9.80;3.70;;;18.70;52.80;;;;;;5015638;28;20420;-55
2024/02/02 08:01:31;;;;;;;6.10;3.42;;;18.60;52.80;;;;;;5025855;28;20162;-55
2024/02/02 08:03:56;;;;;;;6.25;3.55;;;18.60;52.90;;;;;;5030930;28;20120;-57
2024/02/02 08:06:22;;;;;;;7.25;4.00;;;18.60;53.00;;;;;;5028551;28;20128;-53
2024/02/02 08:08:47;;;;;;;7.75;3.80;;;18.60;53.10;;;;;;5030060;28;20030;-55
2024/02/02 08:11:13;;;;;;;9.80;3.40;;;18.60;53.10;;;;;;5031680;28;20035;-55
2024/02/02 08:13:38;;;;;;;8.20;3.63;;;18.50;53.10;;;;;;5028870;28;20035;-57
2024/02/02 08:16:04;;;;;;;9.88;3.85;;;18.50;53.10;;;;;;5030708;28;20022;-56
2024/02/02 08:18:30;;;;;;;6.78;3.53;;;18.50;53.10;;;;;;5029166;28;20122;-56
2024/02/02 08:20:55;;;;;;;6.78;3.28;;;18.50;53.10;;;;;;5032723;28;20531;-52
2024/02/02 08:23:21;;;;;;;5.80;3.13;;;18.50;53.10;;;;;;5032688;28;20142;-53
2024/02/02 08:25:47;;;;;;;10.20;3.70;;;18.50;53.10;;;;;;5029049;28;20034;-55
2024/02/02 08:28:12;;;;;;;6.20;3.53;;;18.50;53.10;;;;;;5025743;28;20045;-52
2024/02/02 08:30:38;;;;;;;6.63;3.20;;;18.50;53.20;;;;;;5025767;28;20435;-55
2024/02/02 08:33:03;;;;;;;5.53;2.97;;;18.50;53.20;;;;;;5034593;28;20140;-57
2024/02/02 08:35:29;;;;;;;6.43;3.15;;;18.50;53.20;;;;;;5031090;28;20045;-55
2024/02/02 08:37:57;;;;;;;6.18;3.40;;;18.50;53.30;;;;;;5027430;28;20040;-57
2024/02/02 08:40:34;;;;;;;6.93;3.70;;;18.40;53.20;;;;;;5028204;28;20105;-56
2024/02/02 08:43:00;;;;;;;4.30;2.70;;;18.40;53.20;;;;;;5032875;28;20500;-55
2024/02/02 08:45:40;;;;;;;6.10;3.30;;;18.40;53.20;;;;;;5029473;28;20085;-57
2024/02/02 08:48:32;;;;;;;6.05;3.28;;;18.40;53.30;;;;;;5035654;28;20037;-54
2024/02/02 08:50:58;;;;;;;6.80;2.92;;;18.40;53.30;;;;;;5034048;28;20076;-56
2024/02/02 08:53:25;;;;;;;4.85;3.00;;;18.40;53.30;;;;;;5017209;28;20040;-57
2024/02/02 08:55:51;;;;;;;5.35;2.90;;;18.40;53.30;;;;;;5033718;28;20159;-54
2024/02/02 08:58:20;;;;;;;5.97;2.92;;;18.40;53.30;;;;;;5030833;28;20033;-53
2024/02/02 09:00:45;;;;;;;6.18;3.35;;;18.40;53.30;;;;;;5030352;28;20029;-57
2024/02/02 09:03:24;;;;;;;4.68;2.50;;;18.40;53.30;;;;;;5035917;28;20044;-54
2024/02/02 09:06:04;;;;;;;3.58;2.35;;;18.30;53.30;;;;;;5032901;28;20115;-56
2024/02/02 09:08:41;;;;;;;7.22;3.83;;;18.30;53.30;;;;;;5015218;28;20033;-56
2024/02/02 09:11:06;;;;;;;8.07;3.58;;;18.30;53.20;;;;;;4997750;28;20403;-57
2024/02/02 09:13:34;;;;;;;4.18;2.35;;;18.40;53.20;;;;;;5000673;28;20041;-58
2024/02/02 09:15:59;;;;;;;4.85;3.10;;;18.40;53.10;;;;;;5033504;28;20048;-57
2024/02/02 09:18:33;;;;;;;6.88;2.95;;;18.40;53.00;;;;;;5038572;28;20557;-54
2024/02/02 09:20:59;;;;;;;3.75;2.67;;;18.50;52.90;;;;;;5020825;28;20037;-56
2024/02/02 09:23:26;;;;;;;4.35;2.42;;;18.50;52.80;;;;;;5028142;28;20033;-55
2024/02/02 09:25:52;;;;;;;3.70;2.72;;;18.60;52.70;;;;;;5031809;28;20515;-53
2024/02/02 09:28:23;;;;;;;4.78;2.58;;;18.60;52.60;;;;;;5029815;28;20115;-57
2024/02/02 09:30:55;;;;;;;5.82;3.08;;;18.70;52.40;;;;;;5025741;28;20113;-55
2024/02/02 09:33:43;;;;;;;4.47;2.38;;;18.80;52.40;;;;;;5035393;28;20033;-57
2024/02/02 09:36:08;;;;;;;5.45;2.40;;;18.90;52.10;;;;;;5030401;28;20048;-56
2024/02/02 09:38:35;;;;;;;3.08;2.22;;;19.00;52.00;;;;;;5029425;28;20067;-56
2024/02/02 09:41:00;;;;;;;4.60;2.17;;;19.00;51.80;;;;;;5033360;28;20033;-56
2024/02/02 09:43:28;;;;;;;3.63;2.13;;;19.20;51.60;;;;;;5015434;28;20474;-56
2024/02/02 09:46:05;;;;;;;2.60;1.85;;;19.20;51.40;;;;;;5032106;28;20049;-55
2024/02/02 09:48:49;;;;;;;4.07;2.42;;;19.30;51.90;;;;;;5032658;28;20296;-56
2024/02/02 09:51:42;;;;;;;4.43;2.38;;;19.40;51.20;;;;;;5003613;28;20036;-56
2024/02/02 09:54:24;;;;;;;4.68;2.08;;;19.50;50.90;;;;;;5031129;28;20037;-56
2024/02/02 09:57:04;;;;;;;3.75;2.13;;;19.70;50.80;;;;;;5029799;28;20033;-57
2024/02/02 09:59:49;;;;;;;3.72;2.05;;;19.70;51.30;;;;;;5030785;28;20544;-54
2024/02/02 10:02:45;;;;;;;3.22;2.00;;;19.70;50.50;;;;;;5033397;28;20055;-54
2024/02/02 10:05:30;;;;;;;3.60;2.28;;;19.80;50.50;;;;;;5028107;28;20555;-53
2024/02/02 10:08:35;;;;;;;3.50;2.00;;;19.80;50.60;;;;;;5029647;28;20381;-54
2024/02/02 10:11:23;;;;;;;2.38;1.75;;;19.70;50.70;;;;;;5030398;28;20122;-55
2024/02/02 10:14:28;;;;;;;3.15;2.00;;;19.70;50.80;;;;;;5033192;28;20495;-54
2024/02/02 10:17:40;;;;;;;4.13;2.15;;;19.60;51.00;;;;;;5031848;28;20075;-57
2024/02/02 10:20:35;;;;;;;2.67;2.00;;;19.50;51.10;;;;;;5033845;28;20056;-57
2024/02/02 10:23:35;;;;;;;3.13;2.00;;;19.40;51.20;;;;;;5028198;28;20075;-55
2024/02/02 10:26:09;;;;;;;3.20;1.95;;;19.40;52.10;;;;;;5034437;23;20315;-50
2024/02/02 10:29:02;;;;;;;3.40;2.22;;;19.30;51.60;;;;;;4978419;28;20505;-50
2024/02/02 10:31:42;;;;;;;2.60;1.98;;;19.30;51.70;;;;;;4982606;28;20644;-51
2024/02/02 10:34:38;;;;;;;3.08;1.83;;;19.20;51.80;;;;;;4979051;28;20034;-52
2024/02/02 10:37:15;;;;;;;4.25;2.03;;;19.10;51.90;;;;;;4978912;28;20053;-50
2024/02/02 10:40:06;;;;;;;4.05;2.47;;;19.10;52.00;;;;;;4984345;28;20044;-50
2024/02/02 10:43:05;;;;;;;4.28;2.13;;;19.10;52.10;;;;;;4986167;28;20156;-50
2024/02/02 10:45:42;;;;;;;2.72;1.80;;;19.00;52.10;;;;;;4992800;28;20492;-49
2024/02/02 10:48:24;;;;;;;2.88;1.85;;;19.00;52.10;;;;;;4987532;28;20072;-51
2024/02/02 10:51:08;;;;;;;2.97;1.83;;;19.00;52.10;;;;;;4995476;28;20515;-51
2024/02/02 10:53:44;;;;;;;2.22;1.52;;;19.00;52.10;;;;;;4991041;28;20040;-51
2024/02/02 10:56:42;;;;;;;3.10;2.00;;;19.10;52.10;;;;;;4991997;28;20054;-49
2024/02/02 10:59:27;;;;;;;4.32;1.95;;;19.00;52.10;;;;;;4993581;28;20127;-50
2024/02/02 11:02:12;;;;;;;1.83;1.42;;;19.00;52.10;;;;;;4989335;28;20499;-50
2024/02/02 11:04:45;;;;;;;;;;;19.00;52.10;;;;;;4984224;28;20116;-48
2024/02/02 11:07:18;;;;;;;2.55;1.65;;;19.00;52.10;;;;;;4992400;28;19952;-51
2024/02/02 11:09:55;;;;;;;2.80;1.70;;;19.00;52.20;;;;;;4990376;28;20031;-47
2024/02/02 11:12:24;;;;;;;3.88;2.35;;;19.00;52.20;;;;;;4999780;28;20113;-48
2024/02/02 11:15:15;;;;;;;3.20;1.63;;;19.00;52.20;;;;;;4984082;28;20050;-53
2024/02/02 11:17:54;;;;;;;3.47;1.75;;;19.00;52.20;;;;;;4981148;28;20034;-49
2024/02/02 11:20:58;;;;;;;1.88;1.55;;;19.00;52.20;;;;;;4973579;28;20038;-49
2024/02/02 11:23:33;;;;;;;2.30;1.55;;;19.00;52.80;;;;;;4986953;28;20541;-50
2024/02/02 11:26:26;;;;;;;2.45;1.65;;;19.00;52.20;;;;;;4969802;28;20054;-48
2024/02/02 11:29:02;;;;;;;1.60;1.35;;;19.00;52.10;;;;;;4980959;28;20465;-50
2024/02/02 11:31:27;;;;;;;2.47;1.52;;;19.00;52.20;;;;;;4987620;28;20034;-51
2024/02/02 11:34:02;;;;;;;2.28;1.60;;;19.00;52.20;;;;;;4988906;28;20054;-51
2024/02/02 11:36:56;;;;;;;2.78;1.55;;;19.00;52.20;;;;;;4986575;28;20030;-49
2024/02/02 11:39:42;;;;;;;2.75;1.63;;;19.00;52.10;;;;;;4988496;28;20121;-49
2024/02/02 11:42:11;;;;;;;2.05;1.20;;;19.00;52.10;;;;;;4989919;28;20046;-52
2024/02/02 11:44:40;;;;;;;2.65;1.30;;;19.00;52.10;;;;;;4988566;28;20484;-51
2024/02/02 11:47:07;;;;;;;1.98;1.58;;;19.00;52.00;;;;;;4992521;28;20292;-50
2024/02/02 11:49:37;;;;;;;2.05;1.23;;;19.00;52.00;;;;;;4988136;28;20030;-48
2024/02/02 11:52:16;;;;;;;2.42;1.30;;;19.00;52.00;;;;;;4991719;28;20034;-49
2024/02/02 11:54:52;;;;;;;2.40;1.52;;;19.00;52.00;;;;;;4991285;28;20076;-51
2024/02/02 11:57:20;;;;;;;;;;;19.00;51.90;;;;;;4991598;28;20026;-51
2024/02/02 11:59:51;;;;;;;1.75;1.38;;;19.00;51.90;;;;;;4991425;28;19910;-52
2024/02/02 12:02:16;;;;;;;1.45;1.08;;;19.00;51.90;;;;;;4993142;28;20030;-53
2024/02/02 12:04:53;;;;;;;1.75;1.08;;;19.10;51.90;;;;;;4989967;28;20523;-51
2024/02/02 12:07:22;;;;;;;2.00;1.33;;;19.10;51.90;;;;;;4993241;28;20099;-52
2024/02/02 12:09:58;;;;;;;1.30;1.00;;;19.10;51.90;;;;;;4992456;28;20158;-50
2024/02/02 12:12:43;;;;;;;1.83;1.23;;;19.10;51.90;;;;;;4992419;28;20091;-51
2024/02/02 12:15:09;;;;;;;1.60;1.27;;;19.10;51.90;;;;;;4994557;28;20034;-49
2024/02/02 12:17:36;;;;;;;1.83;1.23;;;19.10;51.80;;;;;;4989105;28;20057;-51
2024/02/02 12:20:07;;;;;;;2.40;1.27;;;19.10;51.80;;;;;;4993089;28;20113;-49
2024/02/02 12:22:33;;;;;;;1.60;1.35;;;19.10;51.70;;;;;;4999797;28;20042;-49
2024/02/02 12:24:58;;;;;;;1.73;1.55;;;19.10;51.80;;;;;;4993318;28;20499;-50
2024/02/02 12:27:24;;;;;;;1.70;1.38;;;19.20;51.70;;;;;;4993299;28;20045;-50
2024/02/02 12:29:50;;;;;;;1.98;1.42;;;19.20;51.70;;;;;;4998818;28;20041;-50
2024/02/02 12:32:16;;;;;;;1.80;1.13;;;19.20;51.70;;;;;;4995363;28;20038;-52
2024/02/02 12:34:42;;;;;;;1.67;1.08;;;19.20;51.70;;;;;;4992612;28;20084;-50
2024/02/02 12:37:07;;;;;;;1.42;1.00;;;19.20;51.70;;;;;;4997859;28;20578;-48
2024/02/02 12:39:36;;;;;;;1.38;0.90;;;19.20;51.70;;;;;;4993805;28;20034;-51
2024/02/02 12:42:03;;;;;;;2.08;1.15;;;19.20;51.70;;;;;;5001178;28;20060;-50
2024/02/02 12:44:30;;;;;;;1.90;1.20;;;19.20;51.70;;;;;;4996535;28;20082;-49
2024/02/02 12:46:56;;;;;;;2.22;1.20;;;19.20;51.60;;;;;;4996806;28;20029;-48
2024/02/02 12:49:21;;;;;;;2.08;1.23;;;19.20;51.60;;;;;;4993345;28;20084;-48
2024/02/02 12:51:47;;;;;;;1.92;1.38;;;19.20;51.60;;;;;;4998491;28;20510;-49
2024/02/02 12:54:13;;;;;;;1.60;1.30;;;19.30;51.60;;;;;;4995855;28;20036;-51
2024/02/02 12:56:39;;;;;;;1.73;1.15;;;19.20;51.60;;;;;;4993417;28;20033;-50
2024/02/02 12:59:05;;;;;;;1.30;0.93;;;19.20;51.60;;;;;;4996667;28;20026;-52
2024/02/02 13:01:32;;;;;;;1.48;1.00;;;19.20;51.60;;;;;;4995220;28;20026;-50
2024/02/02 13:03:57;;;;;;;1.90;1.15;;;19.20;51.60;;;;;;4997042;28;20026;-52